Dati stazioni meteo Molise - Rete MeteoNetwork


Regione Molise - Nazionale

Dati realtime - Dati giornalieri

Sfoglia tabella
Regione selezionata: Molise
Filtra dati per regione

Stazione Prov. Temperatura Umidità Dewpoint Pioggia Rateo Pioggia Vento Pressione Aggiorn.
Campobasso CB 21.5°C 60% 13.3°C 0 mm 0 mm/h 0 km/h 1012.1 hPa 13:59
Campitello Matese CB 14.2°C 70% 8.9°C 0 mm 0 mm/h 3.2 km/h 1013.1 hPa 13:59
Baranello CB 20.7°C 62% 13.3°C 0 mm 0 mm/h 4.8 km/h 1014.4 hPa 13:59
Isernia IS 21.9°C 75% 17.3°C 0 mm 0 mm/h 6.4 km/h 1013.2 hPa 13:50
Colletorto CB 24.9°C 48% 13.1°C 0 mm 0 mm/h 2.2 km/h 1012.5 hPa 13:59
Capracotta IS 14.9°C 72% 10°C 0 mm 0 mm/h 3.2 km/h 1007.5 hPa 13:59
Campobasso CB 21.2°C 61% 13.3°C 0 mm 0 mm/h 19.3 km/h 1007.5 hPa 13:59
Campodipietra CB 22.6°C 60% 14.4°C 0 mm 0 mm/h 12.2 km/h 1019 hPa 13:59
Castropignano CB 24.1°C 55% 14.5°C 0 mm 0 mm/h 1.1 km/h 1016.3 hPa 13:59
Termoli CB 24.9°C 77% 20.6°C 0 mm 0 mm/h 14.5 km/h 1012.6 hPa 13:59
Campobasso CB 20.4°C 63% 13.3°C 0 mm 0 mm/h 4.8 km/h 1014.3 hPa 13:59
Vinchiaturo CB 18.9°C 70% 13.3°C 0 mm 0 mm/h 1.1 km/h 1015.2 hPa 13:59
Ururi CB 27.1°C 44% 13.8°C 0 mm 0 mm/h 7.9 km/h 1012.6 hPa 13:59
Trivento CB 21.2°C 66% 14.6°C 0 mm 0 mm/h 27.7 km/h 1009.8 hPa 13:56
Frosolone IS 19.5°C 71% 14.1°C 0 mm 0 mm/h 5 km/h 1012.8 hPa 13:56
Agnone IS 19.2°C 75% 14.7°C 0 mm 0 mm/h 5.8 km/h 1014.1 hPa 13:59
Castel San Vincenzo IS 16.5°C 86% 14.1°C 4.6 mm 0 mm/h 4.3 km/h 1014.1 hPa 13:59
Ripalimosani CB 21.8°C 61% 13.9°C 0 mm 0 mm/h 1.4 km/h 1013.6 hPa 13:59
Sepino CB 19.4°C 72% 14.2°C 0.4 mm 0 mm/h 4 km/h 1012.3 hPa 13:59
Cercemaggiore CB 16.6°C 70% 11.1°C 0.4 mm 2.8 mm/h 10.4 km/h 1011 hPa 13:55
Agnone IS 18°C 73% 13.1°C 0 mm 0 mm/h 24.5 km/h 1013.2 hPa 13:57
Campobasso CB 21.4°C 46% 9.3°C 0 mm 0 mm/h 11.2 km/h 1013.9 hPa 13:59
Gambatesa CB 22.8°C 61% 14.9°C 0 mm 0 mm/h 23.8 km/h 1017.8 hPa 13:59
Vinchiaturo CB 19.3°C 68% 13.2°C 0.2 mm 0 mm/h 0 km/h 1014.4 hPa 13:59
Baranello CB 19.4°C 57% 10.7°C 0 mm 0 mm/h 18 km/h 1012.2 hPa 13:59